sensor_id;sensor_type;location;lat;lon;timestamp;P1;durP1;ratioP1;P2;durP2;ratioP2
20734;SDS011;10528;52.124;5.196;2023-03-01T00:01:37;20.90;;;12.43;;
20734;SDS011;10528;52.124;5.196;2023-03-01T00:04:04;22.95;;;13.07;;
20734;SDS011;10528;52.124;5.196;2023-03-01T00:06:31;23.42;;;12.70;;
20734;SDS011;10528;52.124;5.196;2023-03-01T00:08:58;21.48;;;13.43;;
20734;SDS011;10528;52.124;5.196;2023-03-01T00:11:26;21.65;;;13.63;;
20734;SDS011;10528;52.124;5.196;2023-03-01T00:13:57;27.08;;;14.30;;
20734;SDS011;10528;52.124;5.196;2023-03-01T00:16:28;23.83;;;13.68;;
20734;SDS011;10528;52.124;5.196;2023-03-01T00:18:59;23.52;;;12.85;;
20734;SDS011;10528;52.124;5.196;2023-03-01T00:21:27;20.33;;;12.02;;
20734;SDS011;10528;52.124;5.196;2023-03-01T00:23:55;19.25;;;12.02;;
20734;SDS011;10528;52.124;5.196;2023-03-01T00:26:23;18.75;;;11.57;;
20734;SDS011;10528;52.124;5.196;2023-03-01T00:28:51;21.88;;;12.57;;
20734;SDS011;10528;52.124;5.196;2023-03-01T00:31:20;21.33;;;12.88;;
20734;SDS011;10528;52.124;5.196;2023-03-01T00:33:54;22.75;;;13.02;;
20734;SDS011;10528;52.124;5.196;2023-03-01T00:36:27;18.00;;;11.45;;
20734;SDS011;10528;52.124;5.196;2023-03-01T00:38:58;16.77;;;11.23;;
20734;SDS011;10528;52.124;5.196;2023-03-01T00:41:25;16.08;;;10.75;;
20734;SDS011;10528;52.124;5.196;2023-03-01T00:43:53;16.45;;;10.88;;
20734;SDS011;10528;52.124;5.196;2023-03-01T00:46:21;16.42;;;10.75;;
20734;SDS011;10528;52.124;5.196;2023-03-01T00:48:51;13.88;;;10.30;;
20734;SDS011;10528;52.124;5.196;2023-03-01T00:51:19;15.80;;;10.35;;
20734;SDS011;10528;52.124;5.196;2023-03-01T00:53:55;15.15;;;10.60;;
20734;SDS011;10528;52.124;5.196;2023-03-01T00:56:26;15.00;;;11.07;;
20734;SDS011;10528;52.124;5.196;2023-03-01T00:58:54;15.32;;;10.52;;
20734;SDS011;10528;52.124;5.196;2023-03-01T01:01:22;14.63;;;10.68;;
20734;SDS011;10528;52.124;5.196;2023-03-01T01:03:55;16.45;;;10.60;;
20734;SDS011;10528;52.124;5.196;2023-03-01T01:06:25;15.13;;;10.30;;
20734;SDS011;10528;52.124;5.196;2023-03-01T01:08:57;14.02;;;10.80;;
20734;SDS011;10528;52.124;5.196;2023-03-01T01:11:26;13.77;;;10.05;;
20734;SDS011;10528;52.124;5.196;2023-03-01T01:13:55;13.63;;;9.77;;
20734;SDS011;10528;52.124;5.196;2023-03-01T01:16:24;15.18;;;10.02;;
20734;SDS011;10528;52.124;5.196;2023-03-01T01:18:55;15.80;;;10.90;;
20734;SDS011;10528;52.124;5.196;2023-03-01T01:21:23;14.90;;;10.65;;
20734;SDS011;10528;52.124;5.196;2023-03-01T01:23:52;14.15;;;10.10;;
20734;SDS011;10528;52.124;5.196;2023-03-01T01:26:20;13.13;;;10.15;;
20734;SDS011;10528;52.124;5.196;2023-03-01T01:28:55;14.35;;;10.73;;
20734;SDS011;10528;52.124;5.196;2023-03-01T01:31:23;16.73;;;10.82;;
20734;SDS011;10528;52.124;5.196;2023-03-01T01:33:51;16.92;;;10.57;;
20734;SDS011;10528;52.124;5.196;2023-03-01T01:36:20;15.68;;;10.73;;
20734;SDS011;10528;52.124;5.196;2023-03-01T01:38:47;13.50;;;10.40;;
20734;SDS011;10528;52.124;5.196;2023-03-01T01:41:15;13.07;;;10.35;;
20734;SDS011;10528;52.124;5.196;2023-03-01T01:43:47;15.98;;;11.00;;
20734;SDS011;10528;52.124;5.196;2023-03-01T01:46:49;13.65;;;10.05;;
20734;SDS011;10528;52.124;5.196;2023-03-01T01:49:42;14.25;;;10.50;;
20734;SDS011;10528;52.124;5.196;2023-03-01T01:52:18;16.00;;;10.43;;
20734;SDS011;10528;52.124;5.196;2023-03-01T01:57:34;13.25;;;10.25;;
20734;SDS011;10528;52.124;5.196;2023-03-01T02:00:11;14.23;;;10.07;;
20734;SDS011;10528;52.124;5.196;2023-03-01T02:02:46;12.35;;;10.13;;
20734;SDS011;10528;52.124;5.196;2023-03-01T02:05:20;12.27;;;10.05;;
20734;SDS011;10528;52.124;5.196;2023-03-01T02:08:25;14.02;;;10.52;;
20734;SDS011;10528;52.124;5.196;2023-03-01T02:10:56;12.95;;;9.98;;
20734;SDS011;10528;52.124;5.196;2023-03-01T02:13:26;16.38;;;10.95;;
20734;SDS011;10528;52.124;5.196;2023-03-01T02:15:54;16.00;;;10.98;;
20734;SDS011;10528;52.124;5.196;2023-03-01T02:18:21;13.65;;;10.60;;
20734;SDS011;10528;52.124;5.196;2023-03-01T02:21:05;15.15;;;10.70;;
20734;SDS011;10528;52.124;5.196;2023-03-01T02:23:37;17.85;;;10.82;;
20734;SDS011;10528;52.124;5.196;2023-03-01T02:26:11;13.82;;;11.30;;
20734;SDS011;10528;52.124;5.196;2023-03-01T02:28:57;16.40;;;10.93;;
20734;SDS011;10528;52.124;5.196;2023-03-01T02:31:25;12.85;;;10.63;;
20734;SDS011;10528;52.124;5.196;2023-03-01T02:34:09;15.63;;;10.75;;
20734;SDS011;10528;52.124;5.196;2023-03-01T02:36:53;14.52;;;11.07;;
20734;SDS011;10528;52.124;5.196;2023-03-01T02:39:32;15.50;;;11.32;;
20734;SDS011;10528;52.124;5.196;2023-03-01T02:42:16;15.65;;;11.63;;
20734;SDS011;10528;52.124;5.196;2023-03-01T02:44:52;16.42;;;11.07;;
20734;SDS011;10528;52.124;5.196;2023-03-01T02:47:19;15.05;;;10.45;;
20734;SDS011;10528;52.124;5.196;2023-03-01T02:49:46;14.57;;;10.88;;
20734;SDS011;10528;52.124;5.196;2023-03-01T02:52:17;16.35;;;11.63;;
20734;SDS011;10528;52.124;5.196;2023-03-01T02:54:59;13.98;;;11.15;;
20734;SDS011;10528;52.124;5.196;2023-03-01T02:57:42;13.60;;;10.60;;
20734;SDS011;10528;52.124;5.196;2023-03-01T03:00:44;14.38;;;11.43;;
20734;SDS011;10528;52.124;5.196;2023-03-01T03:03:16;15.35;;;11.38;;
20734;SDS011;10528;52.124;5.196;2023-03-01T03:05:46;14.05;;;10.80;;
20734;SDS011;10528;52.124;5.196;2023-03-01T03:08:14;15.27;;;11.48;;
20734;SDS011;10528;52.124;5.196;2023-03-01T03:10:50;14.68;;;10.75;;
20734;SDS011;10528;52.124;5.196;2023-03-01T03:13:17;13.60;;;10.75;;
20734;SDS011;10528;52.124;5.196;2023-03-01T03:15:45;16.73;;;11.05;;
20734;SDS011;10528;52.124;5.196;2023-03-01T03:18:13;15.55;;;11.00;;
20734;SDS011;10528;52.124;5.196;2023-03-01T03:20:43;13.65;;;11.18;;
20734;SDS011;10528;52.124;5.196;2023-03-01T03:23:11;14.32;;;11.38;;
20734;SDS011;10528;52.124;5.196;2023-03-01T03:25:39;17.40;;;12.32;;
20734;SDS011;10528;52.124;5.196;2023-03-01T03:28:06;16.73;;;11.80;;
20734;SDS011;10528;52.124;5.196;2023-03-01T03:30:38;15.00;;;11.75;;
20734;SDS011;10528;52.124;5.196;2023-03-01T03:33:06;14.27;;;11.13;;
20734;SDS011;10528;52.124;5.196;2023-03-01T03:35:42;15.98;;;11.50;;
20734;SDS011;10528;52.124;5.196;2023-03-01T03:38:12;18.77;;;11.90;;
20734;SDS011;10528;52.124;5.196;2023-03-01T03:40:46;15.25;;;11.15;;
20734;SDS011;10528;52.124;5.196;2023-03-01T03:43:28;14.23;;;11.13;;
20734;SDS011;10528;52.124;5.196;2023-03-01T03:45:58;21.73;;;12.30;;
20734;SDS011;10528;52.124;5.196;2023-03-01T03:48:25;15.13;;;10.75;;
20734;SDS011;10528;52.124;5.196;2023-03-01T03:50:53;15.80;;;11.07;;
20734;SDS011;10528;52.124;5.196;2023-03-01T03:53:22;17.13;;;11.75;;
20734;SDS011;10528;52.124;5.196;2023-03-01T03:55:52;15.88;;;11.98;;
20734;SDS011;10528;52.124;5.196;2023-03-01T03:58:20;14.23;;;11.80;;
20734;SDS011;10528;52.124;5.196;2023-03-01T04:00:50;15.20;;;11.85;;
20734;SDS011;10528;52.124;5.196;2023-03-01T04:03:24;16.35;;;11.40;;
20734;SDS011;10528;52.124;5.196;2023-03-01T04:05:53;14.23;;;10.88;;
20734;SDS011;10528;52.124;5.196;2023-03-01T04:08:23;14.35;;;11.40;;
20734;SDS011;10528;52.124;5.196;2023-03-01T04:10:52;16.33;;;11.77;;
20734;SDS011;10528;52.124;5.196;2023-03-01T04:13:25;15.68;;;11.23;;
20734;SDS011;10528;52.124;5.196;2023-03-01T04:15:53;16.00;;;11.73;;
20734;SDS011;10528;52.124;5.196;2023-03-01T04:18:21;16.70;;;11.95;;
20734;SDS011;10528;52.124;5.196;2023-03-01T04:20:52;16.40;;;11.50;;
20734;SDS011;10528;52.124;5.196;2023-03-01T04:23:21;16.15;;;11.40;;
20734;SDS011;10528;52.124;5.196;2023-03-01T04:31:04;16.90;;;12.40;;
20734;SDS011;10528;52.124;5.196;2023-03-01T04:33:44;16.08;;;12.77;;
20734;SDS011;10528;52.124;5.196;2023-03-01T04:36:15;17.40;;;12.60;;
20734;SDS011;10528;52.124;5.196;2023-03-01T04:38:44;16.13;;;12.70;;
20734;SDS011;10528;52.124;5.196;2023-03-01T04:41:15;19.95;;;12.98;;
20734;SDS011;10528;52.124;5.196;2023-03-01T04:43:44;16.83;;;11.95;;
20734;SDS011;10528;52.124;5.196;2023-03-01T04:46:13;15.85;;;12.45;;
20734;SDS011;10528;52.124;5.196;2023-03-01T04:48:44;17.88;;;13.10;;
20734;SDS011;10528;52.124;5.196;2023-03-01T04:51:13;19.60;;;13.23;;
20734;SDS011;10528;52.124;5.196;2023-03-01T04:53:42;18.33;;;13.25;;
20734;SDS011;10528;52.124;5.196;2023-03-01T04:56:10;17.70;;;13.07;;
20734;SDS011;10528;52.124;5.196;2023-03-01T04:58:37;16.98;;;12.23;;
20734;SDS011;10528;52.124;5.196;2023-03-01T05:01:11;16.52;;;12.98;;
20734;SDS011;10528;52.124;5.196;2023-03-01T05:03:42;17.23;;;12.27;;
20734;SDS011;10528;52.124;5.196;2023-03-01T05:06:11;18.10;;;11.90;;
20734;SDS011;10528;52.124;5.196;2023-03-01T05:08:39;19.30;;;13.43;;
20734;SDS011;10528;52.124;5.196;2023-03-01T05:11:07;16.92;;;12.85;;
20734;SDS011;10528;52.124;5.196;2023-03-01T05:13:35;15.85;;;12.45;;
20734;SDS011;10528;52.124;5.196;2023-03-01T05:16:05;18.08;;;12.50;;
20734;SDS011;10528;52.124;5.196;2023-03-01T05:18:37;16.92;;;12.80;;
20734;SDS011;10528;52.124;5.196;2023-03-01T05:21:13;17.58;;;13.40;;
20734;SDS011;10528;52.124;5.196;2023-03-01T05:23:42;17.58;;;13.07;;
20734;SDS011;10528;52.124;5.196;2023-03-01T05:26:09;17.77;;;12.63;;
20734;SDS011;10528;52.124;5.196;2023-03-01T05:28:58;17.95;;;12.90;;
20734;SDS011;10528;52.124;5.196;2023-03-01T05:31:26;16.38;;;12.52;;
20734;SDS011;10528;52.124;5.196;2023-03-01T05:33:54;15.55;;;12.07;;
20734;SDS011;10528;52.124;5.196;2023-03-01T05:36:21;17.77;;;11.90;;
20734;SDS011;10528;52.124;5.196;2023-03-01T05:38:48;17.15;;;11.93;;
20734;SDS011;10528;52.124;5.196;2023-03-01T05:41:15;17.40;;;12.93;;
20734;SDS011;10528;52.124;5.196;2023-03-01T05:43:43;16.27;;;11.82;;
20734;SDS011;10528;52.124;5.196;2023-03-01T05:46:11;16.13;;;11.93;;
20734;SDS011;10528;52.124;5.196;2023-03-01T05:48:39;16.20;;;12.38;;
20734;SDS011;10528;52.124;5.196;2023-03-01T05:51:06;17.27;;;13.35;;
20734;SDS011;10528;52.124;5.196;2023-03-01T05:53:33;15.77;;;12.13;;
20734;SDS011;10528;52.124;5.196;2023-03-01T05:56:02;16.33;;;12.25;;
20734;SDS011;10528;52.124;5.196;2023-03-01T05:58:30;17.70;;;12.23;;
20734;SDS011;10528;52.124;5.196;2023-03-01T06:00:57;18.00;;;12.25;;
20734;SDS011;10528;52.124;5.196;2023-03-01T06:03:24;17.17;;;12.10;;
20734;SDS011;10528;52.124;5.196;2023-03-01T06:05:56;17.50;;;12.32;;
20734;SDS011;10528;52.124;5.196;2023-03-01T06:08:24;17.52;;;12.75;;
20734;SDS011;10528;52.124;5.196;2023-03-01T06:10:53;16.15;;;12.50;;
20734;SDS011;10528;52.124;5.196;2023-03-01T06:13:20;19.58;;;12.95;;
20734;SDS011;10528;52.124;5.196;2023-03-01T06:15:47;18.42;;;12.43;;
20734;SDS011;10528;52.124;5.196;2023-03-01T06:18:14;19.70;;;13.02;;
20734;SDS011;10528;52.124;5.196;2023-03-01T06:20:41;16.50;;;12.77;;
20734;SDS011;10528;52.124;5.196;2023-03-01T06:23:08;18.10;;;13.05;;
20734;SDS011;10528;52.124;5.196;2023-03-01T06:25:36;17.75;;;12.70;;
20734;SDS011;10528;52.124;5.196;2023-03-01T06:28:03;17.90;;;12.85;;
20734;SDS011;10528;52.124;5.196;2023-03-01T06:30:30;17.60;;;12.95;;
20734;SDS011;10528;52.124;5.196;2023-03-01T06:32:58;20.88;;;13.48;;
20734;SDS011;10528;52.124;5.196;2023-03-01T06:35:27;17.48;;;13.38;;
20734;SDS011;10528;52.124;5.196;2023-03-01T06:37:56;18.27;;;13.48;;
20734;SDS011;10528;52.124;5.196;2023-03-01T06:40:26;22.00;;;14.23;;
20734;SDS011;10528;52.124;5.196;2023-03-01T06:42:54;19.75;;;13.50;;
20734;SDS011;10528;52.124;5.196;2023-03-01T06:45:21;18.77;;;14.27;;
20734;SDS011;10528;52.124;5.196;2023-03-01T06:47:48;19.73;;;14.32;;
20734;SDS011;10528;52.124;5.196;2023-03-01T06:50:15;17.90;;;13.73;;
20734;SDS011;10528;52.124;5.196;2023-03-01T06:52:44;19.20;;;13.73;;
20734;SDS011;10528;52.124;5.196;2023-03-01T06:55:11;21.48;;;13.93;;
20734;SDS011;10528;52.124;5.196;2023-03-01T06:57:39;20.90;;;14.57;;
20734;SDS011;10528;52.124;5.196;2023-03-01T07:00:06;18.58;;;13.88;;
20734;SDS011;10528;52.124;5.196;2023-03-01T07:02:34;20.98;;;14.55;;
20734;SDS011;10528;52.124;5.196;2023-03-01T07:05:01;20.92;;;13.63;;
20734;SDS011;10528;52.124;5.196;2023-03-01T07:07:28;20.17;;;14.25;;
20734;SDS011;10528;52.124;5.196;2023-03-01T07:09:55;21.13;;;14.68;;
20734;SDS011;10528;52.124;5.196;2023-03-01T07:12:22;20.75;;;14.63;;
20734;SDS011;10528;52.124;5.196;2023-03-01T07:14:48;21.58;;;14.68;;
20734;SDS011;10528;52.124;5.196;2023-03-01T07:17:15;18.77;;;14.55;;
20734;SDS011;10528;52.124;5.196;2023-03-01T07:19:42;21.02;;;14.73;;
20734;SDS011;10528;52.124;5.196;2023-03-01T07:22:11;22.42;;;14.63;;
20734;SDS011;10528;52.124;5.196;2023-03-01T07:24:37;20.38;;;14.98;;
20734;SDS011;10528;52.124;5.196;2023-03-01T07:27:04;20.90;;;14.60;;
20734;SDS011;10528;52.124;5.196;2023-03-01T07:29:31;23.35;;;15.70;;
20734;SDS011;10528;52.124;5.196;2023-03-01T07:31:58;23.20;;;15.73;;
20734;SDS011;10528;52.124;5.196;2023-03-01T07:34:25;23.25;;;15.40;;
20734;SDS011;10528;52.124;5.196;2023-03-01T07:36:52;24.65;;;16.42;;
20734;SDS011;10528;52.124;5.196;2023-03-01T07:39:19;24.08;;;15.70;;
20734;SDS011;10528;52.124;5.196;2023-03-01T07:41:46;21.67;;;15.55;;
20734;SDS011;10528;52.124;5.196;2023-03-01T07:44:12;25.00;;;16.05;;
20734;SDS011;10528;52.124;5.196;2023-03-01T07:46:39;25.25;;;17.08;;
20734;SDS011;10528;52.124;5.196;2023-03-01T07:49:06;24.00;;;16.08;;
20734;SDS011;10528;52.124;5.196;2023-03-01T07:51:33;23.45;;;16.42;;
20734;SDS011;10528;52.124;5.196;2023-03-01T07:54:00;28.73;;;17.55;;
20734;SDS011;10528;52.124;5.196;2023-03-01T07:56:27;28.08;;;17.60;;
20734;SDS011;10528;52.124;5.196;2023-03-01T07:58:54;27.25;;;17.65;;
20734;SDS011;10528;52.124;5.196;2023-03-01T08:01:21;28.35;;;18.05;;
20734;SDS011;10528;52.124;5.196;2023-03-01T08:03:48;24.63;;;17.08;;
20734;SDS011;10528;52.124;5.196;2023-03-01T08:06:16;28.58;;;18.38;;
20734;SDS011;10528;52.124;5.196;2023-03-01T08:08:44;28.50;;;20.02;;
20734;SDS011;10528;52.124;5.196;2023-03-01T08:11:13;36.33;;;21.65;;
20734;SDS011;10528;52.124;5.196;2023-03-01T08:13:41;33.25;;;21.40;;
20734;SDS011;10528;52.124;5.196;2023-03-01T08:16:10;34.00;;;19.90;;
20734;SDS011;10528;52.124;5.196;2023-03-01T08:18:39;27.63;;;19.48;;
20734;SDS011;10528;52.124;5.196;2023-03-01T08:21:11;28.00;;;18.48;;
20734;SDS011;10528;52.124;5.196;2023-03-01T08:23:41;28.70;;;17.70;;
20734;SDS011;10528;52.124;5.196;2023-03-01T08:26:16;24.17;;;17.45;;
20734;SDS011;10528;52.124;5.196;2023-03-01T08:28:48;25.17;;;16.48;;
20734;SDS011;10528;52.124;5.196;2023-03-01T08:31:20;24.73;;;14.95;;
20734;SDS011;10528;52.124;5.196;2023-03-01T08:34:02;20.95;;;14.90;;
20734;SDS011;10528;52.124;5.196;2023-03-01T08:36:34;19.25;;;14.25;;
20734;SDS011;10528;52.124;5.196;2023-03-01T08:39:06;19.10;;;12.80;;
20734;SDS011;10528;52.124;5.196;2023-03-01T08:41:36;21.42;;;13.52;;
20734;SDS011;10528;52.124;5.196;2023-03-01T08:44:04;18.40;;;12.40;;
20734;SDS011;10528;52.124;5.196;2023-03-01T08:46:38;17.60;;;12.32;;
20734;SDS011;10528;52.124;5.196;2023-03-01T08:49:08;18.58;;;11.95;;
20734;SDS011;10528;52.124;5.196;2023-03-01T08:51:44;15.30;;;11.50;;
20734;SDS011;10528;52.124;5.196;2023-03-01T08:54:13;15.60;;;11.13;;
20734;SDS011;10528;52.124;5.196;2023-03-01T08:56:44;16.58;;;11.48;;
20734;SDS011;10528;52.124;5.196;2023-03-01T08:59:12;16.90;;;11.23;;
20734;SDS011;10528;52.124;5.196;2023-03-01T09:01:41;16.55;;;11.35;;
20734;SDS011;10528;52.124;5.196;2023-03-01T09:04:11;14.32;;;10.73;;
20734;SDS011;10528;52.124;5.196;2023-03-01T09:06:40;13.38;;;10.23;;
20734;SDS011;10528;52.124;5.196;2023-03-01T09:09:12;18.45;;;10.55;;
20734;SDS011;10528;52.124;5.196;2023-03-01T09:11:44;13.68;;;9.45;;
20734;SDS011;10528;52.124;5.196;2023-03-01T09:14:13;14.23;;;10.10;;
20734;SDS011;10528;52.124;5.196;2023-03-01T09:16:40;14.85;;;10.40;;
20734;SDS011;10528;52.124;5.196;2023-03-01T09:19:08;13.93;;;10.20;;
20734;SDS011;10528;52.124;5.196;2023-03-01T09:21:35;13.15;;;9.50;;
20734;SDS011;10528;52.124;5.196;2023-03-01T09:24:08;12.35;;;9.05;;
20734;SDS011;10528;52.124;5.196;2023-03-01T09:26:40;12.45;;;9.30;;
20734;SDS011;10528;52.124;5.196;2023-03-01T09:29:09;13.40;;;8.93;;
20734;SDS011;10528;52.124;5.196;2023-03-01T09:31:36;13.07;;;9.63;;
20734;SDS011;10528;52.124;5.196;2023-03-01T09:34:04;12.80;;;8.80;;
20734;SDS011;10528;52.124;5.196;2023-03-01T09:36:31;12.27;;;8.57;;
20734;SDS011;10528;52.124;5.196;2023-03-01T09:38:59;13.15;;;8.90;;
20734;SDS011;10528;52.124;5.196;2023-03-01T09:44:32;14.55;;;10.63;;
20734;SDS011;10528;52.124;5.196;2023-03-01T09:47:29;13.05;;;8.68;;
20734;SDS011;10528;52.124;5.196;2023-03-01T09:52:53;15.70;;;8.18;;
20734;SDS011;10528;52.124;5.196;2023-03-01T09:58:37;10.98;;;7.72;;
20734;SDS011;10528;52.124;5.196;2023-03-01T10:04:45;9.80;;;6.55;;
20734;SDS011;10528;52.124;5.196;2023-03-01T10:10:21;11.32;;;6.40;;
20734;SDS011;10528;52.124;5.196;2023-03-01T10:16:10;16.85;;;7.30;;
20734;SDS011;10528;52.124;5.196;2023-03-01T10:18:43;10.55;;;6.78;;
20734;SDS011;10528;52.124;5.196;2023-03-01T10:21:17;11.50;;;6.88;;
20734;SDS011;10528;52.124;5.196;2023-03-01T10:23:46;8.77;;;6.22;;
20734;SDS011;10528;52.124;5.196;2023-03-01T10:29:11;8.98;;;6.25;;
20734;SDS011;10528;52.124;5.196;2023-03-01T10:31:49;10.20;;;6.13;;
20734;SDS011;10528;52.124;5.196;2023-03-01T10:34:20;9.02;;;6.28;;
20734;SDS011;10528;52.124;5.196;2023-03-01T10:36:57;10.77;;;6.75;;
20734;SDS011;10528;52.124;5.196;2023-03-01T10:39:54;10.32;;;7.00;;
20734;SDS011;10528;52.124;5.196;2023-03-01T10:42:38;10.25;;;7.40;;
20734;SDS011;10528;52.124;5.196;2023-03-01T10:45:15;9.90;;;6.55;;
20734;SDS011;10528;52.124;5.196;2023-03-01T10:48:03;11.70;;;6.72;;
20734;SDS011;10528;52.124;5.196;2023-03-01T10:50:38;10.32;;;6.30;;
20734;SDS011;10528;52.124;5.196;2023-03-01T10:58:40;9.15;;;5.53;;
20734;SDS011;10528;52.124;5.196;2023-03-01T11:01:31;8.25;;;5.60;;
20734;SDS011;10528;52.124;5.196;2023-03-01T11:06:32;8.25;;;4.45;;
20734;SDS011;10528;52.124;5.196;2023-03-01T11:09:12;9.35;;;5.25;;
20734;SDS011;10528;52.124;5.196;2023-03-01T11:11:43;9.60;;;5.88;;
20734;SDS011;10528;52.124;5.196;2023-03-01T11:14:24;7.82;;;4.72;;
20734;SDS011;10528;52.124;5.196;2023-03-01T11:17:21;10.65;;;5.80;;
20734;SDS011;10528;52.124;5.196;2023-03-01T11:22:45;7.68;;;5.00;;
20734;SDS011;10528;52.124;5.196;2023-03-01T11:25:19;8.63;;;4.63;;
20734;SDS011;10528;52.124;5.196;2023-03-01T11:27:53;7.22;;;5.10;;
20734;SDS011;10528;52.124;5.196;2023-03-01T11:30:24;9.82;;;5.50;;
20734;SDS011;10528;52.124;5.196;2023-03-01T11:33:11;11.20;;;6.38;;
20734;SDS011;10528;52.124;5.196;2023-03-01T11:35:57;11.63;;;5.85;;
20734;SDS011;10528;52.124;5.196;2023-03-01T11:38:54;11.35;;;5.50;;
20734;SDS011;10528;52.124;5.196;2023-03-01T11:41:24;7.90;;;4.78;;
20734;SDS011;10528;52.124;5.196;2023-03-01T11:43:59;7.53;;;4.70;;
20734;SDS011;10528;52.124;5.196;2023-03-01T11:46:42;7.22;;;4.47;;
20734;SDS011;10528;52.124;5.196;2023-03-01T12:01:19;8.13;;;4.57;;
20734;SDS011;10528;52.124;5.196;2023-03-01T12:19:07;5.65;;;3.40;;
20734;SDS011;10528;52.124;5.196;2023-03-01T12:22:08;6.20;;;3.42;;
20734;SDS011;10528;52.124;5.196;2023-03-01T12:31:02;5.50;;;3.00;;
20734;SDS011;10528;52.124;5.196;2023-03-01T12:34:03;7.32;;;3.75;;
20734;SDS011;10528;52.124;5.196;2023-03-01T12:37:10;7.32;;;4.40;;
20734;SDS011;10528;52.124;5.196;2023-03-01T12:46:28;7.28;;;3.58;;
20734;SDS011;10528;52.124;5.196;2023-03-01T12:49:27;5.00;;;3.53;;
20734;SDS011;10528;52.124;5.196;2023-03-01T12:52:00;6.20;;;4.07;;
20734;SDS011;10528;52.124;5.196;2023-03-01T12:54:39;5.85;;;3.78;;
20734;SDS011;10528;52.124;5.196;2023-03-01T13:00:15;6.15;;;3.63;;
20734;SDS011;10528;52.124;5.196;2023-03-01T13:02:59;5.70;;;3.60;;
20734;SDS011;10528;52.124;5.196;2023-03-01T13:08:49;5.15;;;3.17;;
20734;SDS011;10528;52.124;5.196;2023-03-01T13:11:29;5.45;;;3.95;;
20734;SDS011;10528;52.124;5.196;2023-03-01T13:16:49;5.45;;;3.63;;
20734;SDS011;10528;52.124;5.196;2023-03-01T13:19:22;7.63;;;4.30;;
20734;SDS011;10528;52.124;5.196;2023-03-01T13:21:52;8.63;;;4.30;;
20734;SDS011;10528;52.124;5.196;2023-03-01T13:24:27;7.80;;;4.05;;
20734;SDS011;10528;52.124;5.196;2023-03-01T13:32:32;5.95;;;3.58;;
20734;SDS011;10528;52.124;5.196;2023-03-01T13:37:46;5.95;;;3.80;;
20734;SDS011;10528;52.124;5.196;2023-03-01T13:42:45;5.63;;;3.40;;
20734;SDS011;10528;52.124;5.196;2023-03-01T13:45:40;6.15;;;3.38;;
20734;SDS011;10528;52.124;5.196;2023-03-01T13:48:11;5.10;;;3.38;;
20734;SDS011;10528;52.124;5.196;2023-03-01T13:50:53;8.30;;;3.45;;
20734;SDS011;10528;52.124;5.196;2023-03-01T13:53:27;6.13;;;3.80;;
20734;SDS011;10528;52.124;5.196;2023-03-01T13:56:24;6.18;;;3.92;;
20734;SDS011;10528;52.124;5.196;2023-03-01T13:58:53;4.75;;;3.20;;
20734;SDS011;10528;52.124;5.196;2023-03-01T14:01:29;5.72;;;3.80;;
20734;SDS011;10528;52.124;5.196;2023-03-01T14:04:00;9.77;;;4.13;;
20734;SDS011;10528;52.124;5.196;2023-03-01T14:06:30;6.93;;;4.22;;
20734;SDS011;10528;52.124;5.196;2023-03-01T14:09:08;5.68;;;3.67;;
20734;SDS011;10528;52.124;5.196;2023-03-01T14:14:37;5.38;;;3.42;;
20734;SDS011;10528;52.124;5.196;2023-03-01T14:20:00;5.43;;;3.53;;
20734;SDS011;10528;52.124;5.196;2023-03-01T14:22:40;6.78;;;3.85;;
20734;SDS011;10528;52.124;5.196;2023-03-01T14:25:28;12.32;;;3.85;;
20734;SDS011;10528;52.124;5.196;2023-03-01T14:28:12;6.97;;;3.80;;
20734;SDS011;10528;52.124;5.196;2023-03-01T14:30:52;9.25;;;4.43;;
20734;SDS011;10528;52.124;5.196;2023-03-01T14:33:33;7.15;;;3.95;;
20734;SDS011;10528;52.124;5.196;2023-03-01T14:36:07;8.68;;;3.78;;
20734;SDS011;10528;52.124;5.196;2023-03-01T14:38:41;5.38;;;3.40;;
20734;SDS011;10528;52.124;5.196;2023-03-01T14:41:15;8.82;;;3.70;;
20734;SDS011;10528;52.124;5.196;2023-03-01T14:43:50;9.40;;;3.67;;
20734;SDS011;10528;52.124;5.196;2023-03-01T14:46:34;6.45;;;3.67;;
20734;SDS011;10528;52.124;5.196;2023-03-01T14:49:14;6.30;;;3.97;;
20734;SDS011;10528;52.124;5.196;2023-03-01T14:51:51;7.13;;;3.92;;
20734;SDS011;10528;52.124;5.196;2023-03-01T14:54:50;5.32;;;3.08;;
20734;SDS011;10528;52.124;5.196;2023-03-01T14:57:21;8.13;;;3.90;;
20734;SDS011;10528;52.124;5.196;2023-03-01T14:59:51;6.22;;;3.70;;
20734;SDS011;10528;52.124;5.196;2023-03-01T15:02:27;6.28;;;3.72;;
20734;SDS011;10528;52.124;5.196;2023-03-01T15:04:57;6.93;;;4.28;;
20734;SDS011;10528;52.124;5.196;2023-03-01T15:07:29;5.78;;;4.30;;
20734;SDS011;10528;52.124;5.196;2023-03-01T15:10:02;7.18;;;4.00;;
20734;SDS011;10528;52.124;5.196;2023-03-01T15:12:35;7.32;;;4.60;;
20734;SDS011;10528;52.124;5.196;2023-03-01T15:15:20;6.47;;;4.30;;
20734;SDS011;10528;52.124;5.196;2023-03-01T15:17:55;7.75;;;4.28;;
20734;SDS011;10528;52.124;5.196;2023-03-01T15:20:27;7.20;;;4.30;;
20734;SDS011;10528;52.124;5.196;2023-03-01T15:22:57;6.70;;;3.75;;
20734;SDS011;10528;52.124;5.196;2023-03-01T15:25:27;6.68;;;3.80;;
20734;SDS011;10528;52.124;5.196;2023-03-01T15:27:56;7.28;;;3.95;;
20734;SDS011;10528;52.124;5.196;2023-03-01T15:30:31;7.75;;;4.90;;
20734;SDS011;10528;52.124;5.196;2023-03-01T15:36:29;7.95;;;4.57;;
20734;SDS011;10528;52.124;5.196;2023-03-01T15:39:29;7.03;;;3.85;;
20734;SDS011;10528;52.124;5.196;2023-03-01T15:42:07;7.90;;;3.83;;
20734;SDS011;10528;52.124;5.196;2023-03-01T15:47:47;6.25;;;4.00;;
20734;SDS011;10528;52.124;5.196;2023-03-01T15:50:21;7.45;;;4.43;;
20734;SDS011;10528;52.124;5.196;2023-03-01T15:52:52;6.32;;;4.03;;
20734;SDS011;10528;52.124;5.196;2023-03-01T15:58:00;8.13;;;4.13;;
20734;SDS011;10528;52.124;5.196;2023-03-01T16:00:42;7.40;;;4.47;;
20734;SDS011;10528;52.124;5.196;2023-03-01T16:03:25;7.03;;;3.90;;
20734;SDS011;10528;52.124;5.196;2023-03-01T16:05:53;5.65;;;4.00;;
20734;SDS011;10528;52.124;5.196;2023-03-01T16:08:20;7.88;;;4.10;;
20734;SDS011;10528;52.124;5.196;2023-03-01T16:10:46;6.82;;;3.80;;
20734;SDS011;10528;52.124;5.196;2023-03-01T16:13:16;7.30;;;3.80;;
20734;SDS011;10528;52.124;5.196;2023-03-01T16:15:43;5.53;;;3.90;;
20734;SDS011;10528;52.124;5.196;2023-03-01T16:18:10;6.05;;;4.10;;
20734;SDS011;10528;52.124;5.196;2023-03-01T16:20:38;6.82;;;4.07;;
20734;SDS011;10528;52.124;5.196;2023-03-01T16:23:07;8.18;;;4.57;;
20734;SDS011;10528;52.124;5.196;2023-03-01T16:25:37;7.70;;;4.28;;
20734;SDS011;10528;52.124;5.196;2023-03-01T16:28:04;8.77;;;4.75;;
20734;SDS011;10528;52.124;5.196;2023-03-01T16:30:35;7.68;;;3.80;;
20734;SDS011;10528;52.124;5.196;2023-03-01T16:33:06;7.13;;;4.50;;
20734;SDS011;10528;52.124;5.196;2023-03-01T16:35:54;6.15;;;3.97;;
20734;SDS011;10528;52.124;5.196;2023-03-01T16:38:22;6.93;;;4.75;;
20734;SDS011;10528;52.124;5.196;2023-03-01T16:40:49;7.90;;;4.65;;
20734;SDS011;10528;52.124;5.196;2023-03-01T16:43:18;8.95;;;4.70;;
20734;SDS011;10528;52.124;5.196;2023-03-01T16:45:45;6.00;;;4.13;;
20734;SDS011;10528;52.124;5.196;2023-03-01T16:48:12;7.88;;;4.78;;
20734;SDS011;10528;52.124;5.196;2023-03-01T16:50:40;8.60;;;5.07;;
20734;SDS011;10528;52.124;5.196;2023-03-01T16:53:07;9.40;;;5.53;;
20734;SDS011;10528;52.124;5.196;2023-03-01T16:55:34;11.00;;;5.32;;
20734;SDS011;10528;52.124;5.196;2023-03-01T16:58:02;8.60;;;4.70;;